Time;durP1;ratioP1;P1;durP2;ratioP2;P2;SDS_P1;SDS_P2;PMS_P1;PMS_P2;Temp;Humidity;BMP_temperature;BMP_pressure;BME280_temperature;BME280_humidity;BME280_pressure;Samples;Min_cycle;Max_cycle;Signal;HPM_P1;HPM_P2
2022/05/07 00:01:03;;;;;;;4.72;3.05;;;12.70;99.20;;;12.41;100.00;101109.53;5004140;28;20046;-73
2022/05/07 00:03:31;;;;;;;4.35;3.90;;;12.60;99.20;;;12.41;100.00;101112.19;4989406;28;20046;-73
2022/05/07 00:05:58;;;;;;;5.57;3.45;;;12.60;99.20;;;12.38;100.00;101108.72;5004683;28;20046;-73
2022/05/07 00:08:25;;;;;;;5.05;3.42;;;12.60;99.10;;;12.36;100.00;101110.53;5003955;28;20042;-74
2022/05/07 00:10:52;;;;;;;3.85;3.45;;;12.50;98.90;;;12.28;100.00;101115.94;5003462;28;20042;-73
2022/05/07 00:13:19;;;;;;;5.15;3.38;;;12.40;99.00;;;12.22;100.00;101116.03;5004169;28;20446;-73
2022/05/07 00:18:32;;;;;;;3.85;3.55;;;12.40;99.20;;;12.11;100.00;101125.06;4988247;28;20104;-74
2022/05/07 00:20:59;;;;;;;5.70;3.72;;;12.70;99.40;;;12.04;100.00;101120.75;4987478;28;20049;-74
2022/05/07 00:23:26;;;;;;;5.20;3.88;;;12.30;99.60;;;12.05;100.00;101117.22;4971581;28;20054;-74
2022/05/07 00:25:53;;;;;;;3.13;2.80;;;12.30;99.20;;;12.05;100.00;101117.22;4988906;28;20042;-73
2022/05/07 00:28:20;;;;;;;5.63;3.03;;;12.20;99.20;;;12.02;100.00;101109.38;4988510;28;20073;-73
2022/05/07 00:30:47;;;;;;;4.25;3.15;;;12.30;99.20;;;12.18;100.00;101109.97;5004158;28;20410;-73
2022/05/07 00:33:14;;;;;;;5.25;3.70;;;12.20;99.20;;;12.08;100.00;101105.75;4988472;28;20042;-73
2022/05/07 00:35:41;;;;;;;4.20;3.40;;;12.20;99.20;;;11.92;100.00;101112.13;5004790;28;20080;-73
2022/05/07 00:38:08;;;;;;;4.75;3.47;;;12.20;99.30;;;11.98;100.00;101105.88;4988320;28;20046;-74
2022/05/07 00:40:36;;;;;;;6.25;4.15;;;12.10;99.40;;;11.95;100.00;101102.47;4987550;28;20137;-73
2022/05/07 00:43:04;;;;;;;4.03;3.60;;;12.10;99.60;;;11.86;100.00;101111.38;4972923;28;20049;-73
2022/05/07 00:45:31;;;;;;;6.82;3.35;;;12.00;99.70;;;11.71;100.00;101110.78;4956054;28;20050;-74
2022/05/07 00:47:58;;;;;;;5.43;3.58;;;12.00;99.90;;;11.74;100.00;101113.34;4971969;28;20382;-74
2022/05/07 00:53:11;;;;;;;5.50;3.35;;;11.90;99.90;;;11.65;100.00;101107.38;4988168;28;20076;-74
2022/05/07 00:55:40;;;;;;;6.78;4.00;;;12.00;99.90;;;11.66;100.00;101098.56;5004539;28;20042;-73
2022/05/07 00:58:07;;;;;;;5.13;3.40;;;11.80;99.90;;;11.63;100.00;101096.84;5004315;28;20081;-73
2022/05/07 01:00:34;;;;;;;4.03;3.00;;;11.80;99.90;;;11.65;100.00;101107.38;5003889;28;20046;-74
2022/05/07 01:03:04;;;;;;;4.70;3.40;;;11.80;99.90;;;11.69;100.00;101104.63;4988226;28;20046;-74
2022/05/07 01:05:31;;;;;;;4.90;3.53;;;11.90;99.90;;;11.64;100.00;101106.47;4988306;28;20057;-74
2022/05/07 01:08:00;;;;;;;4.13;3.35;;;11.70;99.90;;;11.64;100.00;101111.75;5004455;28;20056;-74
2022/05/07 01:10:28;;;;;;;4.40;3.65;;;11.70;99.90;;;11.61;100.00;101109.16;4986981;28;20042;-74
2022/05/07 01:12:55;;;;;;;7.95;3.50;;;12.80;99.90;;;11.55;100.00;101110.13;4989522;28;20049;-74
2022/05/07 01:15:24;;;;;;;4.90;3.28;;;11.70;99.90;;;11.56;100.00;101105.75;4988742;28;20046;-74
2022/05/07 01:17:53;;;;;;;3.80;3.50;;;12.20;99.90;;;11.55;100.00;101101.34;4988069;28;20038;-74
2022/05/07 01:20:21;;;;;;;5.75;3.83;;;12.50;99.90;;;11.37;100.00;101102.53;4971441;28;20294;-74
2022/05/07 01:22:48;;;;;;;5.43;3.75;;;11.60;99.90;;;11.38;100.00;101112.16;5004065;28;20054;-74
2022/05/07 01:25:23;;;;;;;4.43;3.42;;;12.70;99.90;;;11.25;100.00;101104.44;5004112;28;20070;-74
2022/05/07 01:27:50;;;;;;;5.05;3.47;;;11.50;99.90;;;11.17;100.00;101106.34;4987910;28;20081;-74
2022/05/07 01:30:17;;;;;;;4.47;3.50;;;11.50;99.90;;;11.10;100.00;101100.28;4987611;28;20061;-74
2022/05/07 01:32:44;;;;;;;7.60;3.65;;;11.40;99.90;;;11.10;100.00;101102.94;5004696;28;20077;-74
2022/05/07 01:35:11;;;;;;;6.85;4.07;;;11.90;99.90;;;11.12;100.00;101108.16;4972025;28;20466;-73
2022/05/07 01:37:42;;;;;;;3.97;3.58;;;11.30;99.90;;;10.97;100.00;101104.84;4988211;28;20053;-73
2022/05/07 01:40:11;;;;;;;3.50;3.17;;;11.30;99.90;;;11.04;100.00;101111.78;4987621;28;20041;-73
2022/05/07 01:42:41;;;;;;;5.57;3.63;;;11.20;99.90;;;11.08;100.00;101104.69;5004352;28;20061;-74
2022/05/07 01:45:10;;;;;;;5.07;3.58;;;11.20;99.90;;;11.13;100.00;101108.16;5003674;28;20113;-73
2022/05/07 01:50:27;;;;;;;4.85;3.65;;;11.20;99.90;;;10.99;100.00;101115.38;5003951;28;20049;-74
2022/05/07 01:52:54;;;;;;;7.47;3.40;;;11.20;99.90;;;11.02;100.00;101118.84;4988893;28;20048;-73
2022/05/07 01:55:21;;;;;;;5.60;4.38;;;11.20;99.90;;;11.02;100.00;101110.94;4971799;28;20635;-73
2022/05/07 01:57:52;;;;;;;;;;;11.10;99.90;;;10.94;100.00;101118.06;5004748;28;20050;-73
2022/05/07 02:00:20;;;;;;;4.15;3.75;;;11.20;99.90;;;10.87;100.00;101112.00;5004310;28;20414;-73
2022/05/07 02:02:48;;;;;;;6.95;3.47;;;11.10;99.90;;;10.92;100.00;101115.44;5004986;28;20050;-73
2022/05/07 02:05:20;;;;;;;4.47;3.75;;;11.00;99.90;;;10.71;100.00;101107.81;4971891;28;20120;-73
2022/05/07 02:07:47;;;;;;;3.65;3.33;;;11.60;99.90;;;10.48;100.00;101114.25;4989450;28;20058;-74
2022/05/07 02:10:15;;;;;;;5.32;3.55;;;11.70;99.90;;;10.37;100.00;101109.06;4985525;28;20836;-74
2022/05/07 02:12:43;;;;;;;6.97;4.15;;;10.80;99.90;;;10.52;100.00;101110.69;4988590;28;20073;-73
2022/05/07 02:15:10;;;;;;;7.90;4.00;;;10.80;99.90;;;10.59;100.00;101114.97;4971855;28;20411;-74
2022/05/07 02:17:38;;;;;;;6.35;3.45;;;12.20;99.90;;;10.48;100.00;101125.63;4972575;28;20407;-73
2022/05/07 02:20:07;;;;;;;3.38;3.08;;;10.70;99.90;;;10.41;100.00;101118.72;4987080;28;20046;-73
2022/05/07 02:22:34;;;;;;;4.78;3.47;;;10.60;99.90;;;10.22;100.00;101118.00;4990107;28;20046;-73
2022/05/07 02:25:01;;;;;;;3.95;3.65;;;10.60;99.90;;;10.25;100.00;101115.34;4971963;28;20388;-73
2022/05/07 02:27:28;;;;;;;5.38;3.53;;;10.50;99.90;;;10.19;100.00;101121.53;5004831;28;20503;-73
2022/05/07 02:29:58;;;;;;;3.92;3.50;;;10.80;99.90;;;10.22;100.00;101115.38;4997189;28;20047;-73
2022/05/07 02:32:28;;;;;;;3.67;3.28;;;10.70;99.90;;;10.17;100.00;101122.44;4972263;28;20057;-73
2022/05/07 02:34:56;;;;;;;7.45;3.78;;;10.40;99.90;;;10.05;100.00;101111.16;5015508;28;20451;-73
2022/05/07 02:37:31;;;;;;;4.03;3.17;;;10.30;99.90;;;10.03;100.00;101118.19;4957616;28;20058;-73
2022/05/07 02:39:58;;;;;;;6.22;3.53;;;10.30;99.90;;;9.94;100.00;101118.28;4972135;28;20081;-73
2022/05/07 02:42:33;;;;;;;4.03;3.53;;;10.30;99.90;;;9.98;100.00;101113.88;4988504;28;20238;-73
2022/05/07 02:45:09;;;;;;;3.70;3.28;;;11.40;99.90;;;9.98;100.00;101111.22;4987915;28;20087;-73
2022/05/07 02:47:39;;;;;;;4.53;3.38;;;10.20;99.90;;;9.98;100.00;101105.97;4988586;28;20062;-73
2022/05/07 02:50:08;;;;;;;3.80;3.28;;;10.20;99.90;;;9.91;100.00;101113.94;4989774;28;20077;-73
2022/05/07 02:52:38;;;;;;;;;;;10.20;99.90;;;9.98;100.00;101113.88;4990889;28;20077;-72
2022/05/07 02:55:08;;;;;;;;;;;10.10;99.90;;;9.92;100.00;101114.78;5006739;28;19925;-73
2022/05/07 02:57:37;;;;;;;4.03;3.63;;;10.10;99.90;;;9.82;100.00;101113.13;5007552;28;20383;-73
2022/05/07 03:00:05;;;;;;;4.75;3.45;;;10.10;99.90;;;9.81;100.00;101122.78;4986773;28;20050;-72
2022/05/07 03:02:35;;;;;;;6.22;3.53;;;10.10;99.90;;;9.86;100.00;101128.00;5004534;28;20073;-73
2022/05/07 03:05:05;;;;;;;4.13;3.70;;;10.60;99.90;;;9.67;100.00;101122.03;5003719;28;20062;-73
2022/05/07 03:07:32;;;;;;;3.80;3.40;;;10.00;99.90;;;9.64;100.00;101117.66;4987465;28;20050;-73
2022/05/07 03:10:04;;;;;;;4.78;3.95;;;11.00;99.90;;;9.75;100.00;101128.06;5003127;28;20126;-73
2022/05/07 03:12:32;;;;;;;5.53;3.92;;;9.90;99.90;;;9.74;100.00;101115.81;5004089;28;20042;-74
2022/05/07 03:15:01;;;;;;;;;;;10.90;99.90;;;9.68;100.00;101119.38;4987903;28;20137;-73
2022/05/07 03:17:34;;;;;;;4.28;3.47;;;9.90;99.90;;;9.62;100.00;101125.56;4987658;28;19932;-73
2022/05/07 03:20:08;;;;;;;4.88;3.85;;;9.90;99.90;;;9.50;100.00;101115.13;4986674;28;20046;-73
2022/05/07 03:22:36;;;;;;;5.00;3.80;;;9.90;99.90;;;9.61;100.00;101115.94;4988155;28;20711;-72
2022/05/07 03:25:03;;;;;;;4.15;3.75;;;9.90;99.90;;;9.57;100.00;101121.22;4987724;28;20053;-74
2022/05/07 03:27:32;;;;;;;5.55;3.63;;;9.80;99.90;;;9.55;100.00;101115.97;4987165;28;20821;-73
2022/05/07 03:30:00;;;;;;;4.75;3.58;;;9.80;99.90;;;9.49;100.00;101119.50;5002179;28;20057;-73
2022/05/07 03:32:35;;;;;;;7.00;3.88;;;10.70;99.90;;;9.46;100.00;101106.41;5003268;28;20072;-73
2022/05/07 03:35:03;;;;;;;5.47;4.40;;;10.40;99.90;;;9.57;100.00;101113.34;4986891;28;20411;-73
2022/05/07 03:37:30;;;;;;;3.88;3.45;;;9.80;99.90;;;9.49;100.00;101116.88;4986956;28;20439;-73
2022/05/07 03:39:57;;;;;;;3.80;3.50;;;9.80;99.90;;;9.45;100.00;101107.28;4970285;28;20411;-73
2022/05/07 03:42:27;;;;;;;7.07;4.13;;;10.70;99.90;;;9.39;100.00;101114.34;5003319;28;20053;-74
2022/05/07 03:44:55;;;;;;;6.90;3.63;;;9.80;99.90;;;9.43;100.00;101113.44;4971923;28;20134;-73
2022/05/07 03:47:23;;;;;;;3.83;3.13;;;9.70;99.90;;;9.44;100.00;101113.44;4969571;28;20511;-73
2022/05/07 03:49:50;;;;;;;6.03;3.50;;;9.70;99.90;;;9.42;100.00;101112.56;5002174;28;20051;-73
2022/05/07 03:55:07;;;;;;;4.32;3.85;;;10.30;99.90;;;9.50;100.00;101112.53;4986418;28;20050;-74
2022/05/07 03:57:35;;;;;;;4.28;3.47;;;9.70;99.90;;;9.47;100.00;101110.78;4986727;28;20074;-73
2022/05/07 04:00:03;;;;;;;5.03;3.60;;;10.40;99.90;;;9.45;100.00;101106.44;4994223;28;20046;-73
2022/05/07 04:02:40;;;;;;;4.43;4.03;;;9.70;99.90;;;9.39;100.00;101106.47;4988410;28;20483;-73
2022/05/07 04:05:21;;;;;;;4.25;3.55;;;9.70;99.90;;;9.25;100.00;101115.31;5005660;28;20050;-73
2022/05/07 04:07:52;;;;;;;4.25;3.55;;;9.70;99.90;;;9.24;100.00;101118.81;4989547;28;20097;-73
2022/05/07 04:10:19;;;;;;;6.25;4.20;;;9.60;99.90;;;9.12;100.00;101118.88;5004337;28;20349;-73
2022/05/07 04:12:51;;;;;;;4.90;3.92;;;11.30;99.90;;;9.14;100.00;101119.78;4973785;28;20137;-73
2022/05/07 04:15:24;;;;;;;4.25;3.42;;;9.50;99.90;;;9.14;100.00;101122.41;4989444;28;20050;-73
2022/05/07 04:17:56;;;;;;;5.75;3.83;;;9.40;99.90;;;9.06;100.00;101122.44;4974423;28;20038;-74
2022/05/07 04:20:23;;;;;;;4.88;3.88;;;9.40;99.90;;;9.01;100.00;101132.97;4972118;28;20580;-73
2022/05/07 04:22:56;;;;;;;4.10;3.70;;;9.40;99.90;;;9.05;100.00;101132.06;5005731;28;20517;-74
2022/05/07 04:25:24;;;;;;;4.30;3.90;;;9.30;99.90;;;9.15;100.00;101132.03;5004743;28;20077;-74
2022/05/07 04:27:53;;;;;;;7.22;3.95;;;9.30;99.90;;;8.96;100.00;101129.47;4989429;28;20057;-74
2022/05/07 04:30:22;;;;;;;7.33;3.83;;;9.50;99.90;;;8.94;100.00;101136.47;4989026;28;20065;-73
2022/05/07 04:32:50;;;;;;;4.35;3.90;;;9.30;99.90;;;8.98;100.00;101132.09;5005976;28;20050;-74
2022/05/07 04:35:18;;;;;;;6.78;4.03;;;10.20;99.90;;;8.98;100.00;101126.84;5005334;28;20649;-73
2022/05/07 04:37:45;;;;;;;4.13;3.72;;;9.30;99.90;;;9.02;100.00;101134.69;5005725;28;20465;-75
2022/05/07 04:40:13;;;;;;;6.00;4.15;;;9.30;99.90;;;8.96;100.00;101126.84;5005442;28;20100;-74
2022/05/07 04:42:43;;;;;;;4.20;3.80;;;10.80;99.90;;;9.01;100.00;101132.97;5004520;28;20134;-74
2022/05/07 04:45:11;;;;;;;4.93;3.97;;;9.90;99.90;;;9.11;100.00;101132.91;5005538;28;20503;-73
2022/05/07 04:47:59;;;;;;;5.55;3.95;;;10.50;99.90;;;9.12;100.00;101135.53;5002647;28;20065;-73
2022/05/07 04:50:30;;;;;;;4.45;3.90;;;9.50;99.90;;;9.23;100.00;101135.44;4988290;28;20050;-74
2022/05/07 04:53:19;;;;;;;4.65;4.25;;;9.40;99.90;;;9.26;100.00;101148.56;4989031;28;20515;-74
2022/05/07 04:55:47;;;;;;;5.30;4.80;;;10.90;99.90;;;9.16;100.00;101144.25;5005534;28;20046;-73
2022/05/07 04:58:16;;;;;;;5.45;4.18;;;9.80;99.90;;;9.25;100.00;101136.31;4973586;28;20054;-74
2022/05/07 05:00:44;;;;;;;4.43;4.03;;;9.40;99.90;;;9.21;100.00;101147.72;4972575;28;20054;-73
2022/05/07 05:03:30;;;;;;;4.15;3.78;;;9.40;99.90;;;9.36;100.00;101144.13;4989567;28;20092;-74
2022/05/07 05:06:07;;;;;;;7.55;4.20;;;9.50;99.90;;;9.32;100.00;101138.03;4990083;28;20137;-73
2022/05/07 05:09:07;;;;;;;4.50;4.00;;;9.50;99.90;;;9.39;100.00;101143.22;4982581;28;20054;-74
2022/05/07 05:11:43;;;;;;;4.97;4.25;;;10.20;99.90;;;9.32;100.00;101147.66;4990975;28;20081;-74
2022/05/07 05:16:59;;;;;;;7.10;4.97;;;10.10;99.90;;;9.56;100.00;101146.59;5005272;28;20061;-74
2022/05/07 05:19:33;;;;;;;5.50;4.88;;;10.90;99.90;;;9.64;100.00;101157.06;5005042;28;20050;-74
2022/05/07 05:22:05;;;;;;;7.80;4.65;;;9.70;99.90;;;9.77;100.00;101150.84;5005954;28;20148;-74
2022/05/07 05:24:35;;;;;;;7.20;5.13;;;9.80;99.90;;;9.89;100.00;101163.00;4989536;28;20062;-73
2022/05/07 05:27:03;;;;;;;5.00;4.50;;;9.90;99.90;;;9.95;100.00;101164.69;4989149;28;20413;-73
2022/05/07 05:29:36;;;;;;;5.53;4.38;;;10.00;99.90;;;10.06;100.00;101159.34;5005108;28;20100;-74
2022/05/07 05:32:07;;;;;;;;;;;10.10;99.90;;;10.13;100.00;101160.16;5006288;28;20065;-74
2022/05/07 05:34:37;;;;;;;6.80;4.72;;;10.10;99.90;;;10.17;100.00;101159.25;5005241;28;19921;-74
2022/05/07 05:37:05;;;;;;;6.57;5.22;;;10.20;99.90;;;10.24;100.00;101160.94;5005312;28;20069;-73
2022/05/07 05:39:48;;;;;;;6.10;5.20;;;10.30;99.90;;;10.41;100.00;101163.44;5004822;28;20108;-73
2022/05/07 05:42:16;;;;;;;6.55;5.65;;;10.40;99.90;;;10.34;100.00;101146.81;4990874;28;20716;-77
2022/05/07 05:44:47;;;;;;;6.15;5.10;;;10.50;99.90;;;10.46;100.00;101169.50;5024025;28;20038;-77
2022/05/07 05:47:19;;;;;;;6.28;5.15;;;10.50;99.90;;;10.54;100.00;101163.31;4994006;28;20447;-77
2022/05/07 05:49:50;;;;;;;6.25;5.07;;;10.60;99.90;;;10.63;100.00;101165.81;5005637;28;20053;-77
2022/05/07 05:52:23;;;;;;;6.10;5.15;;;10.60;99.90;;;10.80;100.00;101164.75;5006189;28;20415;-76
2022/05/07 05:54:51;;;;;;;10.32;5.68;;;10.80;99.90;;;10.92;100.00;101180.41;5008270;28;20395;-75
2022/05/07 05:57:19;;;;;;;7.53;5.75;;;10.80;99.90;;;10.99;100.00;101170.66;5023891;28;20069;-75
2022/05/07 05:59:46;;;;;;;8.98;5.57;;;12.10;99.90;;;11.05;100.00;101167.94;5018146;28;20084;-75
2022/05/07 06:02:17;;;;;;;6.88;5.32;;;11.00;99.90;;;11.12;100.00;101169.63;4988351;28;20046;-75
2022/05/07 06:05:05;;;;;;;7.32;5.57;;;11.10;99.90;;;11.24;100.00;101172.94;4988202;28;20046;-75
2022/05/07 06:07:35;;;;;;;7.30;5.45;;;11.20;99.90;;;11.29;100.00;101168.50;5004624;28;20507;-75
2022/05/07 06:10:04;;;;;;;6.50;5.85;;;11.20;99.90;;;11.38;100.00;101172.78;4989699;28;20050;-75
2022/05/07 06:12:33;;;;;;;6.13;4.97;;;11.30;99.90;;;11.45;100.00;101169.13;4991688;28;20038;-75
2022/05/07 06:15:00;;;;;;;7.07;4.78;;;11.40;99.90;;;11.48;100.00;101164.69;4991813;28;20054;-76
2022/05/07 06:17:30;;;;;;;7.65;4.40;;;11.40;99.90;;;11.59;100.00;101169.81;4992050;28;20084;-76
2022/05/07 06:19:58;;;;;;;7.13;4.47;;;11.60;99.90;;;11.70;100.00;101171.41;4990606;28;20507;-76
2022/05/07 06:22:30;;;;;;;5.18;4.35;;;11.60;99.90;;;11.82;100.00;101172.97;4975571;28;20058;-75
2022/05/07 06:28:01;;;;;;;7.68;4.47;;;11.80;99.90;;;12.02;100.00;101173.56;4995605;28;20062;-75
2022/05/07 06:30:35;;;;;;;7.50;4.10;;;11.90;99.90;;;12.11;100.00;101175.16;4990517;28;20081;-76
2022/05/07 06:33:04;;;;;;;5.93;4.30;;;11.90;99.90;;;12.18;100.00;101175.94;4990480;28;20073;-75
2022/05/07 06:35:39;;;;;;;6.20;4.10;;;12.10;99.90;;;12.27;100.00;101188.09;4990213;28;20054;-74
2022/05/07 06:38:13;;;;;;;8.20;4.68;;;12.40;99.90;;;12.40;100.00;101186.09;4990491;28;20078;-75
2022/05/07 06:40:46;;;;;;;8.48;4.60;;;12.80;99.90;;;12.46;100.00;101175.41;5006280;28;20112;-75
2022/05/07 06:43:13;;;;;;;4.35;3.95;;;12.30;99.90;;;12.55;100.00;101175.25;4973914;28;20060;-74
2022/05/07 06:45:59;;;;;;;4.97;4.38;;;12.40;99.90;;;12.71;100.00;101180.22;4990546;28;20061;-75
2022/05/07 06:48:27;;;;;;;6.32;4.78;;;12.50;99.90;;;12.79;100.00;101178.28;4974244;28;20046;-74
2022/05/07 06:50:59;;;;;;;5.22;4.13;;;12.60;99.90;;;12.86;100.00;101179.03;4974492;28;20047;-75
2022/05/07 06:53:28;;;;;;;11.07;5.78;;;12.70;99.90;;;12.96;100.00;101180.59;4990015;28;20050;-75
2022/05/07 06:55:55;;;;;;;11.55;5.00;;;12.80;99.90;;;13.02;100.00;101174.31;4991927;28;20046;-74
2022/05/07 06:58:24;;;;;;;6.32;4.53;;;12.80;99.90;;;13.14;100.00;101178.44;4974053;28;20046;-76
2022/05/07 07:01:01;;;;;;;6.20;4.53;;;12.90;99.90;;;13.21;100.00;101180.06;4992054;28;20050;-75
2022/05/07 07:03:30;;;;;;;5.85;4.72;;;13.00;99.90;;;13.31;100.00;101186.00;4989034;28;20066;-74
2022/05/07 07:05:59;;;;;;;8.30;5.40;;;13.00;99.90;;;13.38;100.00;101184.09;4971714;28;20101;-74
2022/05/07 07:08:30;;;;;;;6.38;4.85;;;13.20;99.90;;;13.44;100.00;101183.97;5004910;28;20046;-75
2022/05/07 07:10:58;;;;;;;6.38;4.97;;;13.20;99.90;;;13.51;100.00;101172.38;4987298;28;20530;-76
2022/05/07 07:13:25;;;;;;;5.53;4.72;;;13.30;99.90;;;13.59;100.00;101175.69;5005917;28;20050;-74
2022/05/07 07:15:52;;;;;;;5.75;5.25;;;13.40;99.90;;;13.65;100.00;101177.31;4984568;28;20044;-75
2022/05/07 07:18:20;;;;;;;7.10;5.07;;;13.40;99.90;;;13.75;100.00;101180.63;4990916;28;20053;-75
2022/05/07 07:20:49;;;;;;;7.90;5.57;;;13.50;99.90;;;13.82;100.00;101176.94;4989643;28;20046;-75
2022/05/07 07:23:19;;;;;;;6.72;5.10;;;13.60;99.90;;;13.92;100.00;101177.56;4991013;28;20100;-75
2022/05/07 07:25:47;;;;;;;6.65;5.15;;;13.70;99.90;;;13.97;100.00;101183.59;4992543;28;20038;-75
2022/05/07 07:28:15;;;;;;;7.90;5.35;;;13.70;99.80;;;14.06;100.00;101179.84;4975004;28;20134;-74
2022/05/07 07:30:42;;;;;;;7.93;5.70;;;13.80;99.90;;;14.12;100.00;101174.38;4992791;28;20050;-75
2022/05/07 07:33:15;;;;;;;7.50;5.07;;;13.90;99.90;;;14.21;100.00;101177.72;4990714;28;20153;-75
2022/05/07 07:35:43;;;;;;;7.72;5.93;;;14.00;99.90;;;14.32;100.00;101175.66;4990218;28;20403;-75
2022/05/07 07:38:11;;;;;;;7.30;5.30;;;14.10;99.90;;;14.38;100.00;101182.56;4990087;28;20050;-75
2022/05/07 07:40:39;;;;;;;7.93;4.93;;;14.10;99.90;;;14.47;100.00;101169.06;4989688;28;20121;-75
2022/05/07 07:43:06;;;;;;;9.73;5.47;;;14.20;99.70;;;14.52;100.00;101177.78;4974376;28;20050;-75
2022/05/07 07:48:19;;;;;;;8.85;4.75;;;14.30;99.30;;;14.71;100.00;101178.13;4991411;28;20035;-75
2022/05/07 07:50:48;;;;;;;7.97;4.75;;;14.40;99.50;;;14.80;100.00;101166.41;4989930;28;20038;-75
2022/05/07 07:53:15;;;;;;;7.93;5.18;;;14.50;99.00;;;14.86;100.00;101162.72;4974476;28;20066;-76
2022/05/07 07:55:42;;;;;;;7.70;4.97;;;14.60;98.60;;;14.97;100.00;101170.34;4974114;28;20050;-76
2022/05/07 07:58:11;;;;;;;6.03;4.68;;;14.70;98.60;;;15.08;100.00;101164.75;4990736;28;20054;-75
2022/05/07 08:00:38;;;;;;;5.53;4.65;;;14.70;98.60;;;15.16;100.00;101165.38;4973405;28;20423;-75
2022/05/07 08:03:13;;;;;;;5.68;4.40;;;14.80;98.40;;;15.23;100.00;101161.63;4988571;28;20042;-75
2022/05/07 08:05:43;;;;;;;8.40;4.97;;;14.90;98.40;;;15.34;100.00;101155.09;4972958;28;20507;-75
2022/05/07 08:13:45;;;;;;;5.18;4.20;;;15.20;98.30;;;15.63;100.00;101161.25;4990010;28;20556;-74
2022/05/07 08:16:13;;;;;;;7.37;4.83;;;15.30;97.80;;;15.71;100.00;101159.25;4988695;28;20380;-74
2022/05/07 08:18:42;;;;;;;4.85;4.03;;;15.30;97.70;;;15.85;100.00;101158.78;4987859;28;20050;-74
2022/05/07 08:21:11;;;;;;;7.50;4.50;;;15.50;97.90;;;15.94;100.00;101160.28;4981471;28;20105;-75
2022/05/07 08:23:40;;;;;;;5.35;4.55;;;15.50;97.80;;;16.05;100.00;101158.13;5002327;28;20042;-74
2022/05/07 08:26:08;;;;;;;5.32;4.43;;;15.70;97.60;;;16.10;100.00;101156.19;4980356;28;20538;-75
2022/05/07 08:28:38;;;;;;;6.53;4.18;;;15.70;97.50;;;16.22;100.00;101156.69;5004340;28;20108;-74
2022/05/07 08:31:05;;;;;;;5.03;4.13;;;15.80;97.30;;;16.27;100.00;101152.94;4988831;28;20058;-74
2022/05/07 08:33:33;;;;;;;7.03;4.50;;;15.90;96.90;;;16.31;100.00;101148.38;4987808;28;20507;-74
2022/05/07 08:36:01;;;;;;;6.28;4.05;;;16.00;96.90;;;16.53;100.00;101148.47;4971816;28;20911;-76
2022/05/07 08:38:28;;;;;;;7.60;3.95;;;16.10;97.20;;;16.60;100.00;101141.13;4973181;28;20042;-76
2022/05/07 08:40:57;;;;;;;9.38;4.75;;;16.40;97.20;;;16.71;100.00;101141.59;4990713;28;20030;-77
2022/05/07 08:43:25;;;;;;;5.72;3.90;;;16.30;96.90;;;16.80;100.00;101140.41;4990602;28;20049;-77
2022/05/07 08:45:52;;;;;;;5.38;4.13;;;16.40;96.30;;;16.83;100.00;101131.44;4974197;28;20052;-77
2022/05/07 08:48:19;;;;;;;5.97;3.78;;;16.50;96.10;;;17.04;100.00;101134.22;4990184;28;20415;-77
2022/05/07 08:50:54;;;;;;;6.38;4.82;;;16.60;95.90;;;17.13;100.00;101136.53;4972340;28;20046;-76
2022/05/07 08:53:22;;;;;;;4.40;3.97;;;16.80;95.50;;;17.19;100.00;101138.94;4987849;28;20046;-75
2022/05/07 08:55:55;;;;;;;6.70;4.20;;;16.80;95.30;;;17.30;100.00;101133.19;4987359;28;20692;-75
2022/05/07 08:58:23;;;;;;;5.50;3.60;;;16.90;95.20;;;17.35;100.00;101131.22;4987533;28;20061;-76
2022/05/07 09:00:50;;;;;;;5.82;3.72;;;17.00;95.50;;;17.55;100.00;101134.88;4971070;28;20158;-77
2022/05/07 09:03:18;;;;;;;6.07;4.22;;;17.10;95.30;;;17.67;100.00;101134.38;5003736;28;20054;-74
2022/05/07 09:05:45;;;;;;;5.72;4.22;;;17.20;95.50;;;17.82;100.00;101135.50;5003148;28;20133;-76
2022/05/07 09:08:12;;;;;;;7.07;4.28;;;17.30;95.50;;;17.96;100.00;101128.72;5002779;28;20052;-77
2022/05/07 09:10:41;;;;;;;5.53;3.83;;;17.50;95.40;;;18.11;97.41;101130.75;5003102;28;20050;-75
2022/05/07 09:13:17;;;;;;;5.05;3.67;;;17.60;95.00;;;18.16;93.45;101127.03;5003425;28;20092;-75
2022/05/07 09:15:58;;;;;;;6.82;3.90;;;17.70;94.70;;;18.11;95.47;101124.59;5004985;28;20057;-76
2022/05/07 09:18:28;;;;;;;5.07;3.60;;;17.80;94.70;;;18.17;92.68;101118.97;4987955;28;20050;-75
2022/05/07 09:24:07;;;;;;;4.30;3.10;;;17.90;94.10;;;18.52;85.96;101119.19;4969647;28;20578;-75
2022/05/07 09:26:39;;;;;;;5.10;3.50;;;18.00;93.80;;;18.65;90.07;101123.97;4961935;28;20131;-75
2022/05/07 09:29:10;;;;;;;4.15;3.08;;;18.10;94.20;;;18.76;76.39;101111.00;4970354;28;20056;-75
2022/05/07 09:31:43;;;;;;;5.57;3.22;;;18.30;93.10;;;18.82;77.99;101108.03;4984800;28;20491;-75
2022/05/07 09:37:20;;;;;;;7.32;2.83;;;18.50;93.00;;;19.08;78.88;101105.97;4977796;28;20057;-74
2022/05/07 09:39:52;;;;;;;6.00;2.90;;;18.60;92.90;;;19.22;76.51;101099.97;5001957;28;20042;-75
2022/05/07 09:42:22;;;;;;;4.82;2.88;;;18.70;92.80;;;19.32;71.69;101104.88;4989211;28;20054;-75
2022/05/07 09:44:49;;;;;;;4.25;3.03;;;18.80;92.30;;;19.28;71.80;101098.81;4970616;28;20504;-76
2022/05/07 09:47:17;;;;;;;4.72;3.50;;;18.90;92.10;;;19.37;70.39;101093.03;4987009;28;20060;-76
2022/05/07 09:52:32;;;;;;;3.28;2.40;;;19.00;91.40;;;19.59;60.37;101094.59;4968909;28;20125;-77
2022/05/07 09:57:46;;;;;;;5.40;2.42;;;19.20;89.70;;;19.95;59.28;101099.03;4999860;28;20052;-78
2022/05/07 10:00:19;;;;;;;5.85;2.97;;;19.40;89.80;;;20.13;56.28;101093.66;4957364;28;20054;-76
2022/05/07 10:03:11;;;;;;;6.35;2.70;;;19.50;89.10;;;20.23;58.59;101100.25;5005533;28;20138;-76
2022/05/07 10:06:03;;;;;;;5.25;2.50;;;19.70;89.70;;;20.19;57.48;101092.47;5010852;28;20100;-75
2022/05/07 10:08:44;;;;;;;6.45;2.28;;;19.80;88.50;;;20.20;53.85;101089.72;4995113;28;20056;-75
2022/05/07 10:11:16;;;;;;;3.65;2.70;;;19.80;86.20;;;20.25;50.55;101081.47;4986076;28;20056;-75
2022/05/07 10:13:54;;;;;;;3.65;2.38;;;19.90;83.10;;;20.44;51.23;101085.81;4969072;28;20051;-75
2022/05/07 10:16:23;;;;;;;5.80;2.35;;;20.00;84.00;;;20.52;52.90;101075.56;4980619;28;20043;-74
2022/05/07 10:18:51;;;;;;;2.70;2.17;;;20.10;85.20;;;20.74;51.49;101077.06;4986025;28;20051;-75
2022/05/07 10:21:21;;;;;;;3.25;2.50;;;20.20;84.20;;;20.93;54.85;101066.25;4987052;28;20109;-75
2022/05/07 10:23:52;;;;;;;5.03;2.50;;;20.40;85.90;;;20.91;51.07;101069.00;4986209;28;20038;-75
2022/05/07 10:26:36;;;;;;;10.70;3.08;;;20.60;83.00;;;20.97;51.34;101073.13;4970990;28;20049;-75
2022/05/07 10:29:04;;;;;;;4.18;2.65;;;20.60;83.00;;;20.94;54.32;101071.47;4981565;28;20118;-75
2022/05/07 10:31:44;;;;;;;5.05;2.80;;;20.70;84.30;;;20.99;53.95;101076.59;4984842;28;20085;-75
2022/05/07 10:34:26;;;;;;;4.18;2.95;;;20.70;84.00;;;20.99;53.96;101065.00;4984658;28;20105;-74
2022/05/07 10:37:05;;;;;;;4.78;3.00;;;20.70;83.40;;;21.00;54.23;101067.59;4970160;28;20042;-74
2022/05/07 10:39:34;;;;;;;2.83;2.15;;;20.70;83.80;;;21.04;54.00;101073.66;4982732;28;20066;-74
2022/05/07 10:42:12;;;;;;;4.22;2.55;;;20.70;83.80;;;21.01;54.70;101066.66;4986942;28;20050;-76
2022/05/07 10:44:42;;;;;;;4.80;2.50;;;20.70;84.10;;;21.07;54.60;101062.78;4985897;28;20077;-77
2022/05/07 10:47:14;;;;;;;;;;;20.70;84.00;;;21.18;53.01;101060.34;4987865;28;20050;-76
2022/05/07 10:50:11;;;;;;;2.65;2.45;;;20.80;83.10;;;21.23;51.88;101057.41;4985410;28;19936;-75
2022/05/07 10:52:39;;;;;;;3.50;2.20;;;20.90;82.60;;;21.15;51.94;101070.34;4975178;28;20050;-77
2022/05/07 10:55:17;;;;;;;4.23;2.93;;;20.90;81.90;;;21.32;51.30;101061.34;4973121;28;20043;-78
2022/05/07 10:57:47;;;;;;;5.95;2.97;;;21.00;81.50;;;21.38;51.71;101064.50;4994758;28;20553;-78
2022/05/07 11:00:17;;;;;;;;;;;21.10;81.60;;;21.62;51.31;101064.03;4981226;28;20138;-78